AXM9134 WMKK-WMKP
Flight info
| Callsign | AXM9134 |
|---|---|
| Flight time | 0h 49m |
| Altitude | 24000 |
| Route | ATIMU2F ATIMU DCT TEPUS GORVU1E |
| Aircraft | A320/M-SDE3FGHIRWY/LB1 |
Departure
| Time | 2026-04-25 09:08 |
|---|---|
| Airport | Kuala Lumpur International Airport (WMKK) |
Arrival
| Time | 2026-04-25 09:57 |
|---|---|
| Airport | Penang International Airport (WMKP) |
| Time | Latitude | Longitude | Altitude | Speed | Heading |
|---|---|---|---|---|---|
| 2026-04-25 08:38 | 2.74354 | 101.68945 | 75 ft | 0 kts | 326° |
| 2026-04-25 08:52 | 2.74344 | 101.68954 | 75 ft | 2 kts | 307° |
| 2026-04-25 08:52 | 2.74336 | 101.68966 | 75 ft | 2 kts | 291° |
| 2026-04-25 08:53 | 2.74333 | 101.68980 | 75 ft | 2 kts | 272° |
| 2026-04-25 08:53 | 2.74334 | 101.68995 | 75 ft | 2 kts | 255° |
| 2026-04-25 08:53 | 2.74340 | 101.69009 | 75 ft | 2 kts | 237° |
| 2026-04-25 08:53 | 2.74342 | 101.69012 | 75 ft | 0 kts | 232° |
| 2026-04-25 08:56 | 2.74339 | 101.69009 | 75 ft | 1 kts | 232° |
| 2026-04-25 08:56 | 2.74329 | 101.68996 | 75 ft | 3 kts | 232° |
| 2026-04-25 08:57 | 2.74309 | 101.68980 | 75 ft | 4 kts | 196° |
| 2026-04-25 08:57 | 2.74269 | 101.68968 | 75 ft | 7 kts | 203° |
| 2026-04-25 08:57 | 2.74233 | 101.68931 | 75 ft | 9 kts | 236° |
| 2026-04-25 08:57 | 2.74191 | 101.68870 | 75 ft | 12 kts | 235° |
| 2026-04-25 08:58 | 2.74140 | 101.68795 | 75 ft | 14 kts | 236° |
| 2026-04-25 08:58 | 2.74081 | 101.68707 | 75 ft | 16 kts | 236° |
| 2026-04-25 08:58 | 2.74017 | 101.68613 | 74 ft | 17 kts | 236° |
| 2026-04-25 08:58 | 2.73944 | 101.68507 | 75 ft | 19 kts | 236° |
| 2026-04-25 08:59 | 2.73875 | 101.68405 | 74 ft | 10 kts | 236° |
| 2026-04-25 08:59 | 2.73833 | 101.68343 | 74 ft | 11 kts | 236° |
| 2026-04-25 08:59 | 2.73788 | 101.68277 | 74 ft | 12 kts | 236° |
| 2026-04-25 08:59 | 2.73764 | 101.68241 | 74 ft | 3 kts | 236° |
| 2026-04-25 09:00 | 2.73748 | 101.68218 | 74 ft | 4 kts | 236° |
| 2026-04-25 09:00 | 2.73727 | 101.68187 | 74 ft | 6 kts | 236° |
| 2026-04-25 09:00 | 2.73689 | 101.68175 | 74 ft | 7 kts | 154° |
| 2026-04-25 09:00 | 2.73643 | 101.68205 | 74 ft | 8 kts | 146° |
| 2026-04-25 09:01 | 2.73589 | 101.68240 | 74 ft | 10 kts | 145° |
| 2026-04-25 09:01 | 2.73529 | 101.68282 | 74 ft | 11 kts | 146° |
| 2026-04-25 09:01 | 2.73464 | 101.68324 | 74 ft | 12 kts | 146° |
| 2026-04-25 09:01 | 2.73388 | 101.68375 | 74 ft | 14 kts | 146° |
| 2026-04-25 09:02 | 2.73304 | 101.68432 | 74 ft | 15 kts | 146° |
| 2026-04-25 09:02 | 2.73212 | 101.68494 | 74 ft | 16 kts | 146° |
| 2026-04-25 09:02 | 2.73115 | 101.68559 | 74 ft | 17 kts | 146° |
| 2026-04-25 09:02 | 2.73011 | 101.68628 | 74 ft | 18 kts | 146° |
| 2026-04-25 09:03 | 2.72898 | 101.68703 | 74 ft | 19 kts | 146° |
| 2026-04-25 09:03 | 2.72782 | 101.68781 | 74 ft | 20 kts | 146° |
| 2026-04-25 09:03 | 2.72667 | 101.68859 | 74 ft | 21 kts | 146° |
| 2026-04-25 09:03 | 2.72544 | 101.68941 | 74 ft | 21 kts | 146° |
| 2026-04-25 09:04 | 2.72417 | 101.69026 | 74 ft | 22 kts | 146° |
| 2026-04-25 09:04 | 2.72317 | 101.69093 | 74 ft | 14 kts | 146° |
| 2026-04-25 09:04 | 2.72228 | 101.69153 | 74 ft | 16 kts | 146° |
| 2026-04-25 09:04 | 2.72133 | 101.69216 | 74 ft | 17 kts | 146° |
| 2026-04-25 09:05 | 2.72028 | 101.69287 | 74 ft | 18 kts | 146° |
| 2026-04-25 09:05 | 2.71929 | 101.69353 | 74 ft | 15 kts | 146° |
| 2026-04-25 09:05 | 2.71833 | 101.69378 | 74 ft | 15 kts | 211° |
| 2026-04-25 09:05 | 2.71781 | 101.69317 | 74 ft | 9 kts | 234° |
| 2026-04-25 09:06 | 2.71764 | 101.69250 | 74 ft | 11 kts | 281° |
| 2026-04-25 09:06 | 2.71796 | 101.69175 | 74 ft | 13 kts | 297° |
| 2026-04-25 09:06 | 2.71848 | 101.69097 | 74 ft | 14 kts | 305° |
| 2026-04-25 09:06 | 2.71912 | 101.69029 | 74 ft | 12 kts | 325° |
| 2026-04-25 09:07 | 2.71994 | 101.68974 | 74 ft | 24 kts | 326° |
| 2026-04-25 09:07 | 2.72296 | 101.68772 | 74 ft | 90 kts | 324° |
| 2026-04-25 09:07 | 2.73813 | 101.67757 | 330 ft | 170 kts | 328° |
| 2026-04-25 09:08 | 2.74857 | 101.67056 | 1023 ft | 169 kts | 328° |
| 2026-04-25 09:08 | 2.75792 | 101.66348 | 1660 ft | 172 kts | 311° |
| 2026-04-25 09:08 | 2.76202 | 101.65240 | 2089 ft | 181 kts | 277° |
| 2026-04-25 09:08 | 2.76234 | 101.63930 | 2361 ft | 196 kts | 270° |
| 2026-04-25 09:09 | 2.76202 | 101.62537 | 2608 ft | 213 kts | 270° |
| 2026-04-25 09:09 | 2.76194 | 101.61058 | 2880 ft | 231 kts | 271° |
| 2026-04-25 09:09 | 2.76233 | 101.59391 | 3221 ft | 248 kts | 277° |
| 2026-04-25 09:09 | 2.76832 | 101.57750 | 3532 ft | 262 kts | 311° |
| 2026-04-25 09:10 | 2.78298 | 101.56596 | 3961 ft | 271 kts | 333° |
| 2026-04-25 09:10 | 2.79972 | 101.55698 | 4622 ft | 276 kts | 334° |
| 2026-04-25 09:10 | 2.81642 | 101.54786 | 5354 ft | 279 kts | 333° |
| 2026-04-25 09:10 | 2.83347 | 101.53790 | 6128 ft | 282 kts | 332° |
| 2026-04-25 09:11 | 2.86698 | 101.51698 | 7643 ft | 289 kts | 329° |
| 2026-04-25 09:11 | 2.88390 | 101.50603 | 8376 ft | 293 kts | 329° |
| 2026-04-25 09:11 | 2.90127 | 101.49465 | 9111 ft | 298 kts | 329° |
| 2026-04-25 09:12 | 2.91823 | 101.48347 | 9820 ft | 302 kts | 329° |
| 2026-04-25 09:12 | 2.93590 | 101.47177 | 10540 ft | 306 kts | 328° |
| 2026-04-25 09:12 | 2.95364 | 101.45999 | 11221 ft | 310 kts | 328° |
| 2026-04-25 09:12 | 2.97158 | 101.44808 | 11912 ft | 314 kts | 328° |
| 2026-04-25 09:13 | 2.98997 | 101.43585 | 12595 ft | 317 kts | 328° |
| 2026-04-25 09:13 | 3.00810 | 101.42378 | 13230 ft | 321 kts | 328° |
| 2026-04-25 09:13 | 3.02609 | 101.41180 | 13839 ft | 324 kts | 328° |
| 2026-04-25 09:13 | 3.04484 | 101.39930 | 14451 ft | 328 kts | 328° |
| 2026-04-25 09:14 | 3.06396 | 101.38656 | 15048 ft | 331 kts | 328° |
| 2026-04-25 09:14 | 3.08279 | 101.37401 | 15612 ft | 334 kts | 329° |
| 2026-04-25 09:14 | 3.10185 | 101.36131 | 16180 ft | 337 kts | 329° |
| 2026-04-25 09:14 | 3.12119 | 101.34844 | 16728 ft | 340 kts | 329° |
| 2026-04-25 09:15 | 3.14096 | 101.33528 | 17265 ft | 343 kts | 329° |
| 2026-04-25 09:15 | 3.16099 | 101.32197 | 17814 ft | 345 kts | 329° |
| 2026-04-25 09:15 | 3.18101 | 101.30865 | 18350 ft | 348 kts | 329° |
| 2026-04-25 09:15 | 3.20141 | 101.29506 | 18866 ft | 350 kts | 329° |
| 2026-04-25 09:16 | 3.22164 | 101.28159 | 19344 ft | 353 kts | 329° |
| 2026-04-25 09:16 | 3.24223 | 101.26788 | 19831 ft | 355 kts | 329° |
| 2026-04-25 09:16 | 3.26279 | 101.25419 | 20299 ft | 357 kts | 329° |
| 2026-04-25 09:16 | 3.28378 | 101.24022 | 20769 ft | 360 kts | 329° |
| 2026-04-25 09:17 | 3.32562 | 101.21235 | 21652 ft | 364 kts | 328° |
| 2026-04-25 09:17 | 3.34664 | 101.19834 | 22081 ft | 366 kts | 328° |
| 2026-04-25 09:17 | 3.36796 | 101.18413 | 22519 ft | 368 kts | 328° |
| 2026-04-25 09:18 | 3.38923 | 101.16996 | 22943 ft | 370 kts | 328° |
| 2026-04-25 09:18 | 3.41099 | 101.15546 | 23366 ft | 373 kts | 328° |
| 2026-04-25 09:18 | 3.43242 | 101.14117 | 23713 ft | 375 kts | 328° |
| 2026-04-25 09:18 | 3.45438 | 101.12653 | 23789 ft | 375 kts | 328° |
| 2026-04-25 09:19 | 3.47615 | 101.11200 | 23795 ft | 375 kts | 328° |
| 2026-04-25 09:19 | 3.49776 | 101.09759 | 23798 ft | 375 kts | 328° |
| 2026-04-25 09:19 | 3.51950 | 101.08308 | 23801 ft | 375 kts | 328° |
| 2026-04-25 09:19 | 3.54099 | 101.06873 | 23797 ft | 365 kts | 328° |
| 2026-04-25 09:20 | 3.56154 | 101.05498 | 23795 ft | 349 kts | 328° |
| 2026-04-25 09:20 | 3.58132 | 101.04175 | 23793 ft | 333 kts | 328° |
| 2026-04-25 09:20 | 3.60005 | 101.02923 | 23793 ft | 320 kts | 328° |
| 2026-04-25 09:20 | 3.61870 | 101.01680 | 23799 ft | 318 kts | 328° |
| 2026-04-25 09:21 | 3.63723 | 101.00446 | 23802 ft | 318 kts | 328° |
| 2026-04-25 09:21 | 3.65555 | 100.99226 | 23803 ft | 318 kts | 329° |
| 2026-04-25 09:21 | 3.67458 | 100.98080 | 23804 ft | 316 kts | 334° |
| 2026-04-25 09:21 | 3.69442 | 100.97118 | 23805 ft | 315 kts | 338° |
| 2026-04-25 09:22 | 3.71388 | 100.96252 | 23674 ft | 310 kts | 339° |
| 2026-04-25 09:22 | 3.73266 | 100.95424 | 23310 ft | 310 kts | 339° |
| 2026-04-25 09:22 | 3.75236 | 100.94554 | 22918 ft | 309 kts | 339° |
| 2026-04-25 09:22 | 3.77181 | 100.93693 | 22567 ft | 307 kts | 339° |
| 2026-04-25 09:23 | 3.79139 | 100.92824 | 22228 ft | 305 kts | 339° |
| 2026-04-25 09:23 | 3.81083 | 100.91960 | 21906 ft | 303 kts | 339° |
| 2026-04-25 09:23 | 3.82989 | 100.91113 | 21582 ft | 301 kts | 339° |
| 2026-04-25 09:23 | 3.84921 | 100.90253 | 21251 ft | 299 kts | 339° |
| 2026-04-25 09:24 | 3.86813 | 100.89411 | 20928 ft | 297 kts | 339° |
| 2026-04-25 09:24 | 3.88713 | 100.88566 | 20602 ft | 296 kts | 339° |
| 2026-04-25 09:24 | 3.90614 | 100.87719 | 20277 ft | 294 kts | 339° |
| 2026-04-25 09:24 | 3.92473 | 100.86891 | 19965 ft | 292 kts | 339° |
| 2026-04-25 09:25 | 3.94323 | 100.86067 | 19648 ft | 291 kts | 339° |
| 2026-04-25 09:25 | 3.96192 | 100.85234 | 19330 ft | 289 kts | 339° |
| 2026-04-25 09:25 | 3.98043 | 100.84409 | 19011 ft | 288 kts | 339° |
| 2026-04-25 09:25 | 3.99865 | 100.83598 | 18705 ft | 286 kts | 339° |
| 2026-04-25 09:26 | 4.01691 | 100.82786 | 18402 ft | 285 kts | 339° |
| 2026-04-25 09:26 | 4.03500 | 100.81979 | 18101 ft | 283 kts | 339° |
| 2026-04-25 09:26 | 4.05295 | 100.81179 | 17802 ft | 282 kts | 339° |
| 2026-04-25 09:26 | 4.07092 | 100.80379 | 17499 ft | 280 kts | 339° |
| 2026-04-25 09:27 | 4.08873 | 100.79584 | 17184 ft | 279 kts | 339° |
| 2026-04-25 09:27 | 4.10642 | 100.78796 | 16869 ft | 278 kts | 339° |
| 2026-04-25 09:27 | 4.12442 | 100.77994 | 16558 ft | 277 kts | 339° |
| 2026-04-25 09:27 | 4.14203 | 100.77209 | 16259 ft | 276 kts | 339° |
| 2026-04-25 09:28 | 4.15972 | 100.76421 | 15957 ft | 275 kts | 339° |
| 2026-04-25 09:28 | 4.17711 | 100.75649 | 15671 ft | 274 kts | 339° |
| 2026-04-25 09:28 | 4.19480 | 100.74880 | 15375 ft | 272 kts | 340° |
| 2026-04-25 09:28 | 4.21216 | 100.74126 | 15081 ft | 271 kts | 339° |
| 2026-04-25 09:29 | 4.22936 | 100.73380 | 14802 ft | 269 kts | 339° |
| 2026-04-25 09:29 | 4.24683 | 100.72622 | 14525 ft | 268 kts | 339° |
| 2026-04-25 09:29 | 4.26396 | 100.71877 | 14239 ft | 266 kts | 339° |
| 2026-04-25 09:29 | 4.28106 | 100.71133 | 13953 ft | 265 kts | 339° |
| 2026-04-25 09:30 | 4.29775 | 100.70404 | 13663 ft | 264 kts | 339° |
| 2026-04-25 09:30 | 4.31487 | 100.69658 | 13368 ft | 263 kts | 339° |
| 2026-04-25 09:30 | 4.33154 | 100.68931 | 13084 ft | 262 kts | 339° |
| 2026-04-25 09:30 | 4.34837 | 100.68198 | 12802 ft | 261 kts | 339° |
| 2026-04-25 09:31 | 4.36513 | 100.67467 | 12519 ft | 260 kts | 339° |
| 2026-04-25 09:31 | 4.38180 | 100.66740 | 12225 ft | 258 kts | 339° |
| 2026-04-25 09:31 | 4.39835 | 100.66019 | 11939 ft | 257 kts | 339° |
| 2026-04-25 09:31 | 4.41490 | 100.65296 | 11651 ft | 256 kts | 339° |
| 2026-04-25 09:32 | 4.43123 | 100.64585 | 11376 ft | 254 kts | 339° |
| 2026-04-25 09:32 | 4.44742 | 100.63879 | 11097 ft | 253 kts | 339° |
| 2026-04-25 09:32 | 4.46365 | 100.63171 | 10820 ft | 252 kts | 339° |
| 2026-04-25 09:32 | 4.47973 | 100.62468 | 10537 ft | 251 kts | 339° |
| 2026-04-25 09:33 | 4.49571 | 100.61772 | 10260 ft | 249 kts | 339° |
| 2026-04-25 09:33 | 4.51165 | 100.61076 | 9978 ft | 248 kts | 339° |
| 2026-04-25 09:33 | 4.52758 | 100.60381 | 9697 ft | 247 kts | 339° |
| 2026-04-25 09:33 | 4.54337 | 100.59692 | 9419 ft | 246 kts | 339° |
| 2026-04-25 09:34 | 4.55907 | 100.59009 | 9140 ft | 245 kts | 339° |
| 2026-04-25 09:34 | 4.57460 | 100.58330 | 8870 ft | 243 kts | 339° |
| 2026-04-25 09:34 | 4.59009 | 100.57655 | 8597 ft | 242 kts | 339° |
| 2026-04-25 09:34 | 4.60558 | 100.56980 | 8323 ft | 241 kts | 339° |
| 2026-04-25 09:35 | 4.62084 | 100.56314 | 8058 ft | 240 kts | 339° |
| 2026-04-25 09:35 | 4.63620 | 100.55644 | 7786 ft | 238 kts | 339° |
| 2026-04-25 09:35 | 4.65124 | 100.54987 | 7525 ft | 237 kts | 339° |
| 2026-04-25 09:35 | 4.66624 | 100.54332 | 7266 ft | 236 kts | 339° |
| 2026-04-25 09:36 | 4.68124 | 100.53678 | 7075 ft | 232 kts | 339° |
| 2026-04-25 09:36 | 4.69620 | 100.53024 | 7062 ft | 234 kts | 339° |
| 2026-04-25 09:36 | 4.71092 | 100.52382 | 7058 ft | 234 kts | 339° |
| 2026-04-25 09:36 | 4.72586 | 100.51729 | 7057 ft | 234 kts | 338° |
| 2026-04-25 09:37 | 4.74089 | 100.51072 | 7061 ft | 234 kts | 339° |
| 2026-04-25 09:37 | 4.75591 | 100.50419 | 7063 ft | 234 kts | 339° |
| 2026-04-25 09:37 | 4.77109 | 100.49814 | 7065 ft | 234 kts | 341° |
| 2026-04-25 09:37 | 4.78631 | 100.49229 | 7062 ft | 235 kts | 341° |
| 2026-04-25 09:38 | 4.80159 | 100.48641 | 7060 ft | 234 kts | 341° |
| 2026-04-25 09:38 | 4.81679 | 100.48053 | 7061 ft | 234 kts | 341° |
| 2026-04-25 09:38 | 4.83217 | 100.47455 | 7069 ft | 234 kts | 341° |
| 2026-04-25 09:38 | 4.84732 | 100.46864 | 7069 ft | 234 kts | 341° |
| 2026-04-25 09:39 | 4.86257 | 100.46267 | 7071 ft | 234 kts | 341° |
| 2026-04-25 09:39 | 4.87786 | 100.45667 | 7070 ft | 234 kts | 341° |
| 2026-04-25 09:39 | 4.89315 | 100.45068 | 7065 ft | 233 kts | 341° |
| 2026-04-25 09:40 | 4.92361 | 100.43873 | 7064 ft | 233 kts | 341° |
| 2026-04-25 09:40 | 4.93894 | 100.43272 | 7070 ft | 233 kts | 341° |
| 2026-04-25 09:40 | 4.95410 | 100.42677 | 7070 ft | 233 kts | 341° |
| 2026-04-25 09:40 | 4.96937 | 100.42075 | 7067 ft | 233 kts | 341° |
| 2026-04-25 09:41 | 4.98445 | 100.41483 | 7069 ft | 233 kts | 341° |
| 2026-04-25 09:41 | 4.99986 | 100.40877 | 7072 ft | 234 kts | 341° |
| 2026-04-25 09:41 | 5.01503 | 100.40280 | 7064 ft | 234 kts | 341° |
| 2026-04-25 09:41 | 5.03040 | 100.39677 | 7060 ft | 234 kts | 341° |
| 2026-04-25 09:42 | 5.04562 | 100.39079 | 7059 ft | 234 kts | 341° |
| 2026-04-25 09:42 | 5.06068 | 100.38488 | 7053 ft | 232 kts | 341° |
| 2026-04-25 09:42 | 5.07572 | 100.37897 | 6855 ft | 230 kts | 341° |
| 2026-04-25 09:42 | 5.09073 | 100.37306 | 6548 ft | 231 kts | 341° |
| 2026-04-25 09:43 | 5.10558 | 100.36722 | 6289 ft | 230 kts | 341° |
| 2026-04-25 09:43 | 5.12032 | 100.36144 | 6026 ft | 228 kts | 341° |
| 2026-04-25 09:43 | 5.13482 | 100.35574 | 5776 ft | 227 kts | 340° |
| 2026-04-25 09:43 | 5.14953 | 100.34995 | 5517 ft | 226 kts | 340° |
| 2026-04-25 09:44 | 5.16427 | 100.34416 | 5234 ft | 225 kts | 340° |
| 2026-04-25 09:44 | 5.17914 | 100.33936 | 4962 ft | 223 kts | 354° |
| 2026-04-25 09:44 | 5.19428 | 100.33979 | 4743 ft | 217 kts | 14° |
| 2026-04-25 09:44 | 5.20804 | 100.34524 | 4604 ft | 208 kts | 33° |
| 2026-04-25 09:45 | 5.21922 | 100.35410 | 4464 ft | 201 kts | 42° |
| 2026-04-25 09:45 | 5.22947 | 100.36352 | 4273 ft | 197 kts | 43° |
| 2026-04-25 09:45 | 5.23950 | 100.37284 | 4026 ft | 197 kts | 43° |
| 2026-04-25 09:45 | 5.24953 | 100.38210 | 3770 ft | 197 kts | 42° |
| 2026-04-25 09:46 | 5.25938 | 100.39113 | 3526 ft | 196 kts | 42° |
| 2026-04-25 09:46 | 5.26931 | 100.40018 | 3279 ft | 196 kts | 42° |
| 2026-04-25 09:46 | 5.27931 | 100.40927 | 3030 ft | 196 kts | 42° |
| 2026-04-25 09:46 | 5.28937 | 100.41841 | 2780 ft | 195 kts | 42° |
| 2026-04-25 09:47 | 5.29957 | 100.42767 | 2578 ft | 194 kts | 42° |
| 2026-04-25 09:47 | 5.30953 | 100.43669 | 2562 ft | 195 kts | 41° |
| 2026-04-25 09:47 | 5.31958 | 100.44579 | 2559 ft | 195 kts | 41° |
| 2026-04-25 09:47 | 5.32964 | 100.45492 | 2556 ft | 195 kts | 41° |
| 2026-04-25 09:48 | 5.33980 | 100.46412 | 2557 ft | 195 kts | 41° |
| 2026-04-25 09:48 | 5.34986 | 100.47324 | 2557 ft | 195 kts | 41° |
| 2026-04-25 09:48 | 5.35991 | 100.48235 | 2554 ft | 196 kts | 41° |
| 2026-04-25 09:48 | 5.37009 | 100.49157 | 2561 ft | 196 kts | 41° |
| 2026-04-25 09:49 | 5.38030 | 100.50081 | 2561 ft | 196 kts | 41° |
| 2026-04-25 09:49 | 5.39051 | 100.51000 | 2560 ft | 195 kts | 38° |
| 2026-04-25 09:49 | 5.40224 | 100.51660 | 2555 ft | 195 kts | 17° |
| 2026-04-25 09:49 | 5.41560 | 100.51836 | 2561 ft | 195 kts | 356° |
| 2026-04-25 09:50 | 5.42894 | 100.51512 | 2559 ft | 196 kts | 335° |
| 2026-04-25 09:50 | 5.44027 | 100.50723 | 2562 ft | 199 kts | 314° |
| 2026-04-25 09:50 | 5.44803 | 100.49577 | 2562 ft | 201 kts | 296° |
| 2026-04-25 09:50 | 5.45337 | 100.48273 | 2565 ft | 202 kts | 292° |
| 2026-04-25 09:51 | 5.45830 | 100.46967 | 2562 ft | 201 kts | 292° |
| 2026-04-25 09:51 | 5.46317 | 100.45695 | 2561 ft | 201 kts | 293° |
| 2026-04-25 09:51 | 5.46736 | 100.44380 | 2549 ft | 201 kts | 275° |
| 2026-04-25 09:51 | 5.46479 | 100.43006 | 2551 ft | 204 kts | 241° |
| 2026-04-25 09:52 | 5.45542 | 100.41917 | 2570 ft | 206 kts | 222° |
| 2026-04-25 09:52 | 5.44479 | 100.40994 | 2629 ft | 195 kts | 221° |
| 2026-04-25 09:52 | 5.43524 | 100.40173 | 2605 ft | 172 kts | 221° |
| 2026-04-25 09:52 | 5.42695 | 100.39447 | 2526 ft | 150 kts | 222° |
| 2026-04-25 09:53 | 5.41933 | 100.38765 | 2528 ft | 146 kts | 223° |
| 2026-04-25 09:53 | 5.41171 | 100.38073 | 2497 ft | 146 kts | 223° |
| 2026-04-25 09:53 | 5.40439 | 100.37409 | 2362 ft | 145 kts | 223° |
| 2026-04-25 09:53 | 5.39683 | 100.36727 | 2204 ft | 144 kts | 223° |
| 2026-04-25 09:54 | 5.38945 | 100.36060 | 2040 ft | 143 kts | 223° |
| 2026-04-25 09:54 | 5.38204 | 100.35390 | 1865 ft | 143 kts | 223° |
| 2026-04-25 09:54 | 5.37712 | 100.34944 | 1750 ft | 142 kts | 224° |
| 2026-04-25 09:54 | 5.36966 | 100.34268 | 1569 ft | 141 kts | 224° |
| 2026-04-25 09:55 | 5.36241 | 100.33612 | 1394 ft | 139 kts | 223° |
| 2026-04-25 09:55 | 5.35524 | 100.32963 | 1220 ft | 138 kts | 224° |
| 2026-04-25 09:55 | 5.34809 | 100.32315 | 1055 ft | 137 kts | 224° |
| 2026-04-25 09:55 | 5.34106 | 100.31673 | 883 ft | 135 kts | 225° |
| 2026-04-25 09:56 | 5.33418 | 100.31048 | 736 ft | 134 kts | 224° |
| 2026-04-25 09:56 | 5.32719 | 100.30431 | 574 ft | 134 kts | 224° |
| 2026-04-25 09:56 | 5.32042 | 100.29805 | 398 ft | 132 kts | 224° |
| 2026-04-25 09:56 | 5.31363 | 100.29191 | 183 ft | 133 kts | 225° |
| 2026-04-25 09:57 | 5.30693 | 100.28573 | 70 ft | 133 kts | 225° |
| 2026-04-25 09:57 | 5.30066 | 100.28007 | 23 ft | 116 kts | 223° |
| 2026-04-25 09:57 | 5.29605 | 100.27588 | 22 ft | 69 kts | 225° |
| 2026-04-25 09:57 | 5.29379 | 100.27380 | 22 ft | 21 kts | 222° |
| 2026-04-25 09:58 | 5.29353 | 100.27357 | 21 ft | 3 kts | 222° |
| 2026-04-25 09:58 | 5.29309 | 100.27317 | 22 ft | 13 kts | 222° |
| 2026-04-25 09:58 | 5.29222 | 100.27235 | 22 ft | 22 kts | 225° |
| 2026-04-25 09:58 | 5.29101 | 100.27129 | 21 ft | 21 kts | 222° |
| 2026-04-25 09:59 | 5.29075 | 100.27032 | 21 ft | 10 kts | 304° |
| 2026-04-25 09:59 | 5.29121 | 100.26982 | 22 ft | 9 kts | 313° |
| 2026-04-25 09:59 | 5.29166 | 100.26932 | 23 ft | 10 kts | 311° |
| 2026-04-25 09:59 | 5.29212 | 100.26880 | 24 ft | 10 kts | 311° |
| 2026-04-25 10:00 | 5.29258 | 100.26826 | 25 ft | 10 kts | 311° |
| 2026-04-25 10:00 | 5.29296 | 100.26786 | 25 ft | 4 kts | 312° |
| 2026-04-25 10:00 | 5.29319 | 100.26760 | 26 ft | 3 kts | 312° |
| 2026-04-25 10:00 | 5.29329 | 100.26749 | 26 ft | 1 kts | 313° |
| 2026-04-25 10:01 | 5.29330 | 100.26749 | 26 ft | 0 kts | 313° |